Kezdőlap
METAR-TAF:

METAR-TAF

Repülőterek :

Parói nemzetközi repülőtér

Timpu, India

földrajzi szélesség: 27-24-32N, földrajzi hosszúság: 89-25-14E, magasság: 2235 m

Jelenlegi meteorológiai megfigyelések

A jelentés 40 perccel ezelõtt készült, 02:00 UTC
Különbözõ irányokból fújó szél 2 kt
Hőmérséklet 10°C
Páratartalom 71%
Légköri nyomás 1027 hPa
Látótávolság 10 km, vagy több
Kevés felhő 4000 lábon

METAR: VQPR 130200Z VRB02KT 9999 FEW040 10/05 Q1027

Idő: 08:40 (02:40 UTC)


TAF: hiányzik

Meteorológiai megfigyelések és előrejelzések több, mint 4000 repülőtéren (METAR és TAF jelentéseket).

A térképen piros és sárga pontok jelzik az elérhető meteorológiai állomásokat.

Mozgassa az egeret a pont fölött, hogy megjelenjen az állomás neve.

Azután kattintson az időjárási megfigyelések és előrejelzések megtekintéséhez.

A térkép megváltoztatása: kattintson a fekete keresztel jelölt zöld gombra ráközelítéshez, a vonallal jelölt zöld gombra távolításhoz, vagy a zöld nyilakra a szomszédos térképek eléréséhez.


METAR-TAF: